Time;durP1;ratioP1;P1;durP2;ratioP2;P2;SDS_P1;SDS_P2;PMS_P1;PMS_P2;Temp;Humidity;BMP_temperature;BMP_pressure;BME280_temperature;BME280_humidity;BME280_pressure;Samples;Min_cycle;Max_cycle;Signal;HPM_P1;HPM_P2
2022/08/05 00:01:20;;;;;;;7.93;4.55;;;18.10;99.90;;;;;;5066425;28;20044;-54
2022/08/05 00:03:49;;;;;;;9.02;5.25;;;18.00;99.90;;;;;;5066491;28;20132;-53
2022/08/05 00:06:16;;;;;;;6.82;4.78;;;18.00;99.90;;;;;;5066437;28;20037;-53
2022/08/05 00:08:42;;;;;;;10.25;4.78;;;17.90;99.90;;;;;;5066469;28;20044;-54
2022/08/05 00:11:11;;;;;;;11.32;5.22;;;17.90;99.90;;;;;;5065344;28;20048;-52
2022/08/05 00:13:39;;;;;;;10.02;6.10;;;17.90;99.90;;;;;;5066400;28;20051;-51
2022/08/05 00:16:08;;;;;;;7.35;4.78;;;17.90;99.90;;;;;;5066285;28;20052;-53
2022/08/05 00:18:36;;;;;;;6.70;4.50;;;18.00;99.90;;;;;;5066604;28;20053;-54
2022/08/05 00:21:01;;;;;;;7.63;5.15;;;18.00;99.90;;;;;;5066083;28;20914;-51
2022/08/05 00:23:27;;;;;;;8.02;5.00;;;17.90;99.90;;;;;;5066693;28;20055;-52
2022/08/05 00:25:53;;;;;;;5.45;4.70;;;18.00;99.90;;;;;;5044929;28;20049;-53
2022/08/05 00:28:19;;;;;;;10.88;5.18;;;18.00;99.90;;;;;;5064678;28;20137;-53
2022/08/05 00:30:45;;;;;;;10.70;4.90;;;18.00;99.90;;;;;;5066075;28;20130;-52
2022/08/05 00:33:11;;;;;;;9.00;5.53;;;18.00;99.90;;;;;;5066636;28;20063;-54
2022/08/05 00:35:38;;;;;;;8.23;4.90;;;18.10;99.90;;;;;;5066419;28;20436;-52
2022/08/05 00:38:04;;;;;;;7.35;4.93;;;18.10;99.90;;;;;;5067027;28;20044;-54
2022/08/05 00:40:29;;;;;;;6.68;4.72;;;18.10;99.90;;;;;;5066425;28;20056;-55
2022/08/05 00:42:58;;;;;;;8.07;4.55;;;18.10;99.90;;;;;;5065879;28;20048;-52
2022/08/05 00:45:24;;;;;;;6.32;4.57;;;18.10;99.90;;;;;;5066336;28;20052;-52
2022/08/05 00:47:51;;;;;;;7.10;4.78;;;18.20;99.90;;;;;;5066269;28;20044;-53
2022/08/05 00:50:17;;;;;;;5.63;3.63;;;18.20;99.90;;;;;;5065805;28;20097;-53
2022/08/05 00:52:43;;;;;;;5.88;3.90;;;18.20;99.90;;;;;;5065423;28;20139;-53
2022/08/05 00:55:11;;;;;;;8.02;3.63;;;18.20;99.90;;;;;;5065880;28;20040;-52
2022/08/05 00:57:46;;;;;;;6.63;3.97;;;18.20;99.90;;;;;;5010762;28;20757;-51
2022/08/05 01:00:13;;;;;;;5.45;3.58;;;18.10;99.90;;;;;;5065857;28;20037;-52
2022/08/05 01:02:39;;;;;;;7.70;3.60;;;18.10;99.90;;;;;;5065970;28;20584;-54
2022/08/05 01:05:05;;;;;;;8.07;3.38;;;18.10;99.90;;;;;;5065697;28;20623;-52
2022/08/05 01:07:31;;;;;;;6.40;3.92;;;18.10;99.90;;;;;;5065931;28;20131;-53
2022/08/05 01:10:01;;;;;;;7.35;4.15;;;18.10;99.90;;;;;;5065942;28;20052;-53
2022/08/05 01:12:27;;;;;;;7.45;4.55;;;18.10;99.90;;;;;;5064129;28;20053;-52
2022/08/05 01:15:06;;;;;;;9.23;5.20;;;18.10;99.90;;;;;;5040280;28;20406;-53
2022/08/05 01:17:45;;;;;;;7.47;4.00;;;18.10;99.90;;;;;;5066039;28;20076;-50
2022/08/05 01:20:50;;;;;;;9.00;4.50;;;18.00;99.90;;;;;;5065595;28;20138;-50
2022/08/05 01:23:42;;;;;;;8.10;4.53;;;18.00;99.90;;;;;;5057886;28;20101;-49
2022/08/05 01:26:54;;;;;;;7.30;4.70;;;18.00;99.90;;;;;;5065550;28;20454;-53
2022/08/05 01:29:40;;;;;;;6.20;4.03;;;18.00;99.90;;;;;;4983183;28;20149;-52
2022/08/05 01:32:10;;;;;;;11.02;4.80;;;18.00;99.90;;;;;;4983363;28;20077;-53
2022/08/05 01:34:46;;;;;;;8.05;4.40;;;18.00;99.90;;;;;;4982884;28;20101;-52
2022/08/05 01:37:34;;;;;;;8.30;4.95;;;18.00;99.90;;;;;;4983052;28;20093;-52
2022/08/05 01:40:01;;;;;;;4.88;4.00;;;18.00;99.90;;;;;;4966590;28;20447;-52
2022/08/05 01:42:30;;;;;;;9.63;4.28;;;18.00;99.90;;;;;;4982745;28;20082;-55
2022/08/05 01:44:59;;;;;;;9.13;4.15;;;18.00;99.90;;;;;;4982790;28;20054;-54
2022/08/05 01:47:27;;;;;;;7.05;4.75;;;18.00;99.90;;;;;;4982761;28;20062;-53
2022/08/05 01:49:54;;;;;;;5.13;3.92;;;18.00;99.90;;;;;;4982685;28;20209;-50
2022/08/05 01:52:21;;;;;;;6.95;4.30;;;18.00;99.90;;;;;;4982554;28;20265;-54
2022/08/05 01:54:55;;;;;;;7.28;4.40;;;17.90;99.90;;;;;;4982298;28;20058;-53
2022/08/05 01:57:28;;;;;;;8.75;4.88;;;17.90;99.90;;;;;;4979059;28;20050;-53
2022/08/05 02:00:03;;;;;;;9.15;4.18;;;17.80;99.90;;;;;;4982175;28;20112;-53
2022/08/05 02:02:31;;;;;;;6.25;4.13;;;17.80;99.90;;;;;;4982260;28;20660;-52
2022/08/05 02:05:02;;;;;;;7.15;4.35;;;17.80;99.90;;;;;;4982317;28;20042;-55
2022/08/05 02:07:30;;;;;;;5.13;3.88;;;17.80;99.90;;;;;;5064688;28;20411;-53
2022/08/05 02:09:58;;;;;;;8.13;4.28;;;17.70;99.90;;;;;;5064931;28;20048;-53
2022/08/05 02:12:42;;;;;;;5.13;3.47;;;17.70;99.90;;;;;;5063491;28;20052;-52
2022/08/05 02:15:33;;;;;;;6.93;4.20;;;17.70;99.90;;;;;;5046062;28;20045;-52
2022/08/05 02:18:27;;;;;;;7.20;4.68;;;17.70;99.90;;;;;;5046114;28;20136;-51
2022/08/05 02:20:55;;;;;;;;;;;17.70;99.90;;;;;;5062198;28;20701;-53
2022/08/05 02:23:27;;;;;;;6.75;4.40;;;17.60;99.90;;;;;;5064563;28;19932;-54
2022/08/05 02:25:56;;;;;;;7.50;4.68;;;17.60;99.90;;;;;;5062676;28;20055;-51
2022/08/05 02:28:27;;;;;;;6.43;4.60;;;17.60;99.90;;;;;;5064184;28;20423;-50
2022/08/05 02:30:57;;;;;;;7.60;4.57;;;17.50;99.90;;;;;;5064135;28;20061;-51
2022/08/05 02:33:25;;;;;;;6.63;4.90;;;17.50;99.90;;;;;;5064873;28;20106;-49
2022/08/05 02:35:57;;;;;;;7.10;4.78;;;17.60;99.90;;;;;;5063620;28;20131;-53
2022/08/05 02:38:27;;;;;;;7.97;4.95;;;17.50;99.90;;;;;;5063982;28;20049;-51
2022/08/05 02:40:54;;;;;;;8.00;5.80;;;17.50;99.90;;;;;;5063883;28;20057;-51
2022/08/05 02:43:20;;;;;;;8.95;5.32;;;17.50;99.90;;;;;;5045816;28;20056;-52
2022/08/05 02:45:48;;;;;;;7.28;5.22;;;17.50;99.90;;;;;;5063368;28;20048;-52
2022/08/05 02:48:15;;;;;;;7.15;5.43;;;17.50;99.90;;;;;;5063739;28;20048;-53
2022/08/05 02:50:45;;;;;;;11.27;7.07;;;17.50;99.90;;;;;;5062907;28;20592;-52
2022/08/05 02:53:13;;;;;;;10.70;5.93;;;17.40;99.90;;;;;;5063461;28;20569;-52
2022/08/05 02:55:39;;;;;;;7.72;5.43;;;17.40;99.90;;;;;;5064236;28;20052;-52
2022/08/05 02:58:05;;;;;;;8.75;5.65;;;17.30;99.90;;;;;;5065067;28;20048;-52
2022/08/05 03:00:33;;;;;;;10.80;5.75;;;17.30;99.90;;;;;;5063420;28;20490;-52
2022/08/05 03:03:00;;;;;;;7.53;5.65;;;17.30;99.90;;;;;;5063728;28;20045;-51
2022/08/05 03:05:27;;;;;;;8.13;5.72;;;17.20;99.90;;;;;;5063931;28;20055;-50
2022/08/05 03:07:53;;;;;;;8.35;5.43;;;17.20;99.90;;;;;;5063202;28;20851;-53
2022/08/05 03:10:20;;;;;;;8.23;5.53;;;17.20;99.90;;;;;;5064096;28;20135;-52
2022/08/05 03:12:46;;;;;;;7.43;5.72;;;17.20;99.90;;;;;;5063615;28;20417;-52
2022/08/05 03:15:12;;;;;;;10.32;5.82;;;17.20;99.90;;;;;;5063860;28;20912;-56
2022/08/05 03:17:38;;;;;;;7.72;5.80;;;17.20;99.90;;;;;;5040288;28;20178;-57
2022/08/05 03:20:10;;;;;;;8.15;5.50;;;17.10;99.90;;;;;;5063981;28;20059;-52
2022/08/05 03:22:36;;;;;;;7.28;5.20;;;17.10;99.90;;;;;;5064001;28;20079;-54
2022/08/05 03:25:04;;;;;;;6.20;5.28;;;17.10;99.90;;;;;;5064811;28;20633;-52
2022/08/05 03:27:31;;;;;;;7.38;5.43;;;17.10;99.90;;;;;;5063886;28;20045;-49
2022/08/05 03:29:57;;;;;;;8.15;5.60;;;17.20;99.90;;;;;;5062785;28;20089;-51
2022/08/05 03:32:23;;;;;;;8.30;5.68;;;17.10;99.90;;;;;;5062392;28;20065;-51
2022/08/05 03:34:51;;;;;;;9.82;5.35;;;17.20;99.90;;;;;;5063812;28;20055;-52
2022/08/05 03:37:19;;;;;;;7.10;5.75;;;17.20;99.90;;;;;;5045258;28;20115;-50
2022/08/05 03:39:56;;;;;;;7.63;4.93;;;17.20;99.90;;;;;;5063022;28;20511;-52
2022/08/05 03:42:22;;;;;;;6.18;5.38;;;17.20;99.90;;;;;;5063667;28;20052;-50
2022/08/05 03:44:48;;;;;;;8.07;5.57;;;17.20;99.90;;;;;;5062350;28;20056;-49
2022/08/05 03:47:14;;;;;;;9.98;5.88;;;17.20;99.90;;;;;;5062842;28;20055;-51
2022/08/05 03:49:40;;;;;;;7.78;5.70;;;17.20;99.90;;;;;;5062478;28;20185;-51
2022/08/05 03:52:11;;;;;;;8.00;5.47;;;17.10;99.90;;;;;;5062825;28;20048;-52
2022/08/05 03:54:54;;;;;;;9.00;5.57;;;17.20;99.90;;;;;;5063049;28;20087;-50
2022/08/05 03:57:28;;;;;;;7.10;5.93;;;17.20;99.90;;;;;;5065122;28;20045;-53
2022/08/05 04:00:02;;;;;;;9.30;6.43;;;17.20;99.90;;;;;;5061060;28;20049;-51
2022/08/05 04:02:31;;;;;;;6.90;5.80;;;17.20;99.90;;;;;;5061301;28;20574;-51
2022/08/05 04:04:58;;;;;;;7.90;6.38;;;17.20;99.90;;;;;;5063306;28;20406;-50
2022/08/05 04:07:26;;;;;;;8.20;6.18;;;17.10;99.90;;;;;;5063857;28;20107;-52
2022/08/05 04:09:53;;;;;;;7.32;5.80;;;17.00;99.90;;;;;;5063036;28;20051;-50
2022/08/05 04:12:19;;;;;;;10.85;6.90;;;17.00;99.90;;;;;;5062489;28;20049;-54
2022/08/05 04:14:46;;;;;;;9.43;6.90;;;16.90;99.90;;;;;;5062893;28;20052;-51
2022/08/05 04:17:12;;;;;;;9.95;5.88;;;16.90;99.90;;;;;;5063345;28;20091;-51
2022/08/05 04:19:46;;;;;;;7.45;6.13;;;16.90;99.90;;;;;;5062291;28;20151;-53
2022/08/05 04:22:13;;;;;;;9.90;6.57;;;16.90;99.90;;;;;;5062534;28;20064;-53
2022/08/05 04:24:45;;;;;;;6.97;6.15;;;16.90;99.90;;;;;;5061957;28;20048;-49
2022/08/05 04:27:14;;;;;;;7.97;5.90;;;16.90;99.90;;;;;;5066664;28;20055;-50
2022/08/05 04:29:40;;;;;;;6.47;5.82;;;16.90;99.90;;;;;;5066657;28;20120;-54
2022/08/05 04:32:07;;;;;;;6.60;6.05;;;16.90;99.90;;;;;;5066392;28;20055;-55
2022/08/05 04:34:34;;;;;;;7.20;6.30;;;16.90;99.90;;;;;;5066311;28;20044;-51
2022/08/05 04:37:01;;;;;;;7.68;6.82;;;16.90;99.90;;;;;;5066573;28;20384;-51
2022/08/05 04:39:27;;;;;;;9.65;6.57;;;17.00;99.90;;;;;;5048260;28;20048;-56
2022/08/05 04:41:54;;;;;;;7.68;6.80;;;16.90;99.90;;;;;;5067016;28;20052;-54
2022/08/05 04:44:20;;;;;;;7.65;6.03;;;17.00;99.90;;;;;;5066453;28;20052;-51
2022/08/05 04:46:46;;;;;;;9.07;7.05;;;16.90;99.90;;;;;;5066889;28;20098;-52
2022/08/05 04:49:12;;;;;;;8.60;6.57;;;16.90;99.90;;;;;;5048786;28;20051;-52
2022/08/05 04:51:37;;;;;;;10.32;7.18;;;17.00;99.90;;;;;;5066589;28;20048;-52
2022/08/05 04:54:04;;;;;;;8.98;6.03;;;17.00;99.90;;;;;;5066211;28;20053;-48
2022/08/05 04:56:30;;;;;;;7.65;6.55;;;17.00;99.90;;;;;;5066326;28;20044;-51
2022/08/05 04:58:59;;;;;;;8.35;6.18;;;17.00;99.90;;;;;;5067848;28;20596;-50
2022/08/05 05:01:25;;;;;;;6.63;6.05;;;16.90;99.90;;;;;;5043867;28;20072;-52
2022/08/05 05:03:51;;;;;;;7.10;6.25;;;16.90;99.90;;;;;;5045632;28;20049;-51
2022/08/05 05:06:18;;;;;;;11.60;6.95;;;16.90;99.90;;;;;;5045060;28;20044;-46
2022/08/05 05:08:45;;;;;;;7.70;6.70;;;16.90;99.90;;;;;;5044327;28;20140;-49
2022/08/05 05:11:11;;;;;;;7.22;5.70;;;16.90;99.90;;;;;;5046142;28;20049;-51
2022/08/05 05:13:37;;;;;;;12.00;6.22;;;16.90;99.90;;;;;;5038053;28;20125;-50
2022/08/05 05:16:04;;;;;;;9.57;6.03;;;16.90;99.90;;;;;;5044801;28;20533;-49
2022/08/05 05:18:30;;;;;;;9.70;6.80;;;16.90;99.90;;;;;;5045294;28;20403;-48
2022/08/05 05:20:56;;;;;;;8.80;5.97;;;16.90;99.90;;;;;;5045807;28;20045;-50
2022/08/05 05:23:22;;;;;;;7.82;5.70;;;17.00;99.90;;;;;;5045385;28;20052;-51
2022/08/05 05:25:48;;;;;;;7.40;5.75;;;17.00;99.90;;;;;;5045482;28;20037;-51
2022/08/05 05:28:14;;;;;;;6.25;5.65;;;17.00;99.90;;;;;;5045820;28;20059;-49
2022/08/05 05:30:40;;;;;;;6.78;5.53;;;17.10;99.90;;;;;;5045387;28;20044;-48
2022/08/05 05:33:07;;;;;;;6.30;5.50;;;17.10;99.90;;;;;;5045436;28;20052;-51
2022/08/05 05:35:33;;;;;;;6.78;5.50;;;17.20;99.90;;;;;;5045517;28;20053;-51
2022/08/05 05:38:03;;;;;;;6.50;5.30;;;17.20;99.90;;;;;;5042041;28;20118;-51
2022/08/05 05:40:30;;;;;;;10.57;5.18;;;17.50;99.90;;;;;;5044360;28;20062;-52
2022/08/05 05:42:56;;;;;;;7.00;5.47;;;18.00;99.90;;;;;;5045813;28;20080;-50
2022/08/05 05:45:22;;;;;;;6.22;4.85;;;18.90;99.90;;;;;;5046684;28;20484;-50
2022/08/05 05:47:48;;;;;;;6.55;4.30;;;19.60;99.90;;;;;;5046111;28;20102;-48
2022/08/05 05:50:16;;;;;;;5.53;3.80;;;20.40;99.90;;;;;;5045609;28;20048;-51
2022/08/05 05:52:43;;;;;;;3.85;3.45;;;21.80;99.90;;;;;;5045870;28;20041;-48
2022/08/05 05:55:11;;;;;;;4.95;3.83;;;23.30;99.90;;;;;;5045322;28;20414;-51
2022/08/05 05:57:39;;;;;;;5.07;3.17;;;24.60;99.90;;;;;;5047100;28;20132;-54
2022/08/05 06:00:08;;;;;;;4.88;2.80;;;25.60;99.90;;;;;;5049253;28;20057;-51
2022/08/05 06:02:34;;;;;;;4.63;2.90;;;26.50;99.90;;;;;;5066332;28;20110;-54
2022/08/05 06:05:00;;;;;;;5.55;2.70;;;27.40;99.90;;;;;;5065977;28;20044;-52
2022/08/05 06:07:27;;;;;;;5.32;2.50;;;28.10;99.90;;;;;;5047968;28;20867;-52
2022/08/05 06:09:53;;;;;;;4.47;2.22;;;28.90;99.30;;;;;;5064760;28;20087;-53
2022/08/05 06:12:19;;;;;;;4.80;2.33;;;29.60;98.10;;;;;;5065243;28;20058;-52
2022/08/05 06:14:45;;;;;;;2.92;1.90;;;30.10;96.40;;;;;;5058089;28;20095;-50
2022/08/05 06:17:11;;;;;;;5.13;2.20;;;30.20;96.10;;;;;;5063437;28;20049;-52
2022/08/05 06:19:39;;;;;;;2.80;1.63;;;30.30;95.30;;;;;;5064033;28;20448;-51
2022/08/05 06:22:06;;;;;;;3.17;1.90;;;30.40;94.30;;;;;;5045746;28;20127;-53
2022/08/05 06:24:34;;;;;;;2.90;1.90;;;31.00;94.70;;;;;;5064482;28;20564;-53
2022/08/05 06:27:00;;;;;;;5.22;2.08;;;31.40;93.80;;;;;;5063607;28;20055;-52
2022/08/05 06:29:26;;;;;;;3.25;1.83;;;31.80;93.20;;;;;;5044017;28;20057;-54
2022/08/05 06:31:52;;;;;;;4.75;2.10;;;31.80;93.00;;;;;;5064335;28;20052;-53
2022/08/05 06:34:18;;;;;;;4.03;1.90;;;32.10;92.90;;;;;;5064893;28;20099;-54
2022/08/05 06:36:44;;;;;;;3.58;2.33;;;32.10;91.50;;;;;;5064442;28;20435;-54
2022/08/05 06:39:11;;;;;;;5.72;1.70;;;32.40;91.70;;;;;;5064218;28;20117;-54
2022/08/05 06:41:37;;;;;;;3.95;1.50;;;32.30;90.80;;;;;;5063782;28;20052;-55
2022/08/05 06:44:04;;;;;;;3.40;1.80;;;32.30;91.40;;;;;;5065040;28;20044;-54
2022/08/05 06:46:30;;;;;;;3.17;1.90;;;32.30;90.30;;;;;;5046685;28;20503;-54
2022/08/05 06:48:56;;;;;;;3.60;1.65;;;32.30;91.00;;;;;;5063917;28;20044;-55
2022/08/05 06:51:22;;;;;;;3.78;1.88;;;32.30;90.80;;;;;;5064264;28;20043;-55
2022/08/05 06:53:48;;;;;;;4.20;1.60;;;32.30;90.70;;;;;;5064976;28;20048;-56
2022/08/05 06:56:23;;;;;;;4.30;1.60;;;32.20;89.90;;;;;;5065286;28;20079;-56
2022/08/05 06:58:49;;;;;;;2.55;1.25;;;32.10;89.30;;;;;;5062824;28;20072;-54
2022/08/05 07:01:27;;;;;;;3.38;1.60;;;31.70;90.00;;;;;;5066548;28;20061;-55
2022/08/05 07:03:53;;;;;;;2.90;1.45;;;31.60;90.10;;;;;;5067781;28;20071;-55
2022/08/05 07:06:20;;;;;;;2.97;1.30;;;31.50;90.10;;;;;;5064191;28;20098;-55
2022/08/05 07:08:45;;;;;;;2.42;1.20;;;31.80;89.40;;;;;;5064412;28;20044;-55
2022/08/05 07:11:11;;;;;;;3.05;1.23;;;31.80;89.20;;;;;;5064318;28;20552;-55
2022/08/05 07:19:07;;;;;;;3.28;1.13;;;30.10;90.40;;;;;;5060536;28;20043;-54
2022/08/05 07:21:33;;;;;;;3.35;1.42;;;29.60;90.80;;;;;;5064254;28;20052;-54
2022/08/05 07:23:59;;;;;;;2.03;1.15;;;28.80;91.60;;;;;;5063361;28;20044;-61
2022/08/05 07:26:25;;;;;;;3.85;1.20;;;28.50;91.90;;;;;;5063856;28;20084;-59
2022/08/05 07:28:51;;;;;;;3.83;1.38;;;27.90;92.20;;;;;;5063636;28;20103;-56
2022/08/05 07:31:17;;;;;;;4.32;1.52;;;27.40;92.00;;;;;;5064171;28;20044;-54
2022/08/05 07:33:43;;;;;;;3.10;1.40;;;27.20;92.40;;;;;;5063272;28;20056;-55
2022/08/05 07:36:09;;;;;;;3.35;1.40;;;27.40;92.70;;;;;;5061357;28;20124;-55
2022/08/05 07:38:36;;;;;;;3.33;1.27;;;27.50;92.30;;;;;;5062873;28;20051;-55
2022/08/05 07:41:07;;;;;;;3.45;1.10;;;27.30;92.50;;;;;;5062469;28;20487;-56
2022/08/05 07:43:33;;;;;;;2.75;1.02;;;27.10;92.40;;;;;;5063520;28;20044;-56
2022/08/05 07:45:59;;;;;;;4.63;1.20;;;27.00;92.50;;;;;;5062734;28;20134;-56
2022/08/05 07:48:25;;;;;;;2.20;1.23;;;27.00;92.60;;;;;;5063249;28;20439;-55
2022/08/05 07:50:51;;;;;;;3.03;1.05;;;27.00;93.00;;;;;;5062656;28;20044;-55
2022/08/05 07:53:18;;;;;;;3.60;1.20;;;27.00;93.10;;;;;;5062246;28;20095;-56
2022/08/05 07:55:44;;;;;;;2.78;1.10;;;26.60;93.30;;;;;;5061881;28;20049;-56
2022/08/05 07:58:09;;;;;;;3.45;1.42;;;26.40;93.20;;;;;;5062886;28;20109;-55
2022/08/05 08:00:35;;;;;;;2.38;1.02;;;26.50;93.60;;;;;;5063577;28;20048;-55
2022/08/05 08:03:01;;;;;;;4.30;1.23;;;26.40;93.60;;;;;;5066185;28;20064;-56
2022/08/05 08:05:28;;;;;;;5.22;1.42;;;26.30;94.20;;;;;;5065551;28;20048;-56
2022/08/05 08:07:54;;;;;;;2.40;1.02;;;26.20;93.60;;;;;;5066042;28;20692;-56
2022/08/05 08:10:21;;;;;;;3.67;1.63;;;25.80;93.70;;;;;;5065819;28;20074;-56
2022/08/05 08:12:50;;;;;;;2.70;1.20;;;25.10;94.00;;;;;;5062184;28;20116;-56
2022/08/05 08:15:16;;;;;;;4.25;1.30;;;24.90;94.80;;;;;;5064104;28;20048;-56
2022/08/05 08:17:44;;;;;;;3.22;1.65;;;25.00;95.00;;;;;;5047802;28;20402;-55
2022/08/05 08:20:09;;;;;;;8.43;1.65;;;25.10;94.80;;;;;;5065721;28;20411;-56
2022/08/05 08:22:35;;;;;;;3.88;1.20;;;25.00;95.10;;;;;;5065765;28;20083;-56
2022/08/05 08:25:01;;;;;;;4.15;1.15;;;25.00;94.90;;;;;;5065905;28;20411;-56
2022/08/05 08:27:27;;;;;;;3.45;1.10;;;25.30;94.80;;;;;;5065973;28;20052;-55
2022/08/05 08:29:52;;;;;;;3.75;1.38;;;25.30;94.30;;;;;;5066313;28;20048;-56
2022/08/05 08:32:18;;;;;;;4.53;1.30;;;25.50;94.40;;;;;;5065420;28;20041;-56
2022/08/05 08:34:44;;;;;;;3.28;1.00;;;25.20;93.70;;;;;;5065604;28;20056;-56
2022/08/05 08:37:09;;;;;;;2.80;1.17;;;24.70;93.90;;;;;;5065637;28;20052;-56
2022/08/05 08:39:35;;;;;;;2.58;1.20;;;24.70;94.20;;;;;;5065997;28;20076;-57
2022/08/05 08:42:01;;;;;;;3.88;1.20;;;25.00;94.30;;;;;;5065482;28;20539;-56
2022/08/05 08:44:32;;;;;;;3.25;1.00;;;24.90;94.80;;;;;;5065847;28;20032;-56
2022/08/05 08:47:01;;;;;;;2.78;1.27;;;24.70;94.10;;;;;;5066367;28;20048;-55
2022/08/05 08:49:29;;;;;;;2.50;0.90;;;24.40;93.80;;;;;;5065463;28;20055;-56
2022/08/05 08:52:15;;;;;;;1.70;0.70;;;24.30;93.90;;;;;;5069203;28;20051;-56
2022/08/05 08:54:43;;;;;;;2.70;1.00;;;24.50;93.90;;;;;;5066826;28;20748;-57
2022/08/05 08:57:10;;;;;;;2.05;0.90;;;24.80;94.00;;;;;;5065721;28;20109;-60
2022/08/05 08:59:37;;;;;;;3.15;1.20;;;24.90;92.90;;;;;;5066830;28;20052;-56
2022/08/05 09:02:05;;;;;;;2.95;1.25;;;25.00;93.10;;;;;;5064498;28;20056;-56
2022/08/05 09:04:36;;;;;;;2.33;0.80;;;24.90;92.50;;;;;;5064101;28;20053;-56
2022/08/05 09:07:06;;;;;;;3.88;1.25;;;24.70;92.80;;;;;;5064713;28;20127;-57
2022/08/05 09:09:33;;;;;;;3.03;0.98;;;24.80;92.50;;;;;;5064814;28;20114;-56
2022/08/05 09:11:59;;;;;;;4.40;1.33;;;24.70;92.40;;;;;;5064004;28;20310;-56
2022/08/05 09:14:25;;;;;;;4.28;1.00;;;24.70;92.50;;;;;;5064199;28;20526;-56
2022/08/05 09:16:51;;;;;;;4.00;0.90;;;24.50;92.50;;;;;;5064525;28;20036;-56
2022/08/05 09:19:17;;;;;;;2.60;1.38;;;24.60;92.80;;;;;;5064677;28;20040;-56
2022/08/05 09:21:42;;;;;;;5.07;0.98;;;24.70;93.00;;;;;;5067850;28;20087;-56
2022/08/05 09:24:09;;;;;;;4.28;0.90;;;24.80;92.50;;;;;;5064674;28;20052;-56
2022/08/05 09:26:35;;;;;;;3.10;0.80;;;24.70;91.20;;;;;;5065162;28;20553;-56
2022/08/05 09:29:05;;;;;;;3.45;0.85;;;24.80;90.30;;;;;;5064618;28;20098;-56
2022/08/05 09:31:32;;;;;;;2.05;0.73;;;24.40;87.10;;;;;;5045947;28;20048;-56
2022/08/05 09:34:03;;;;;;;2.17;0.88;;;24.20;89.20;;;;;;5064364;28;20450;-56
2022/08/05 09:36:43;;;;;;;2.17;0.68;;;24.30;90.40;;;;;;5063811;28;20095;-56
2022/08/05 09:39:11;;;;;;;1.02;0.47;;;24.30;91.60;;;;;;5064864;28;20114;-56
2022/08/05 09:42:02;;;;;;;2.08;0.85;;;24.20;88.00;;;;;;5058751;28;20097;-57
2022/08/05 09:44:38;;;;;;;1.80;0.70;;;24.00;85.60;;;;;;5064262;28;20088;-56
2022/08/05 09:47:16;;;;;;;2.38;0.60;;;24.10;86.30;;;;;;5063519;28;20522;-56
2022/08/05 09:49:49;;;;;;;2.60;0.60;;;24.30;87.40;;;;;;5046920;28;20625;-56
2022/08/05 09:52:26;;;;;;;1.70;0.70;;;24.30;83.40;;;;;;5064845;28;20082;-56
2022/08/05 09:54:58;;;;;;;4.85;0.82;;;24.50;85.80;;;;;;5065070;28;20060;-56
2022/08/05 09:57:31;;;;;;;;;;;24.70;85.00;;;;;;5065103;28;20415;-57
2022/08/05 10:00:10;;;;;;;2.45;0.60;;;24.60;85.50;;;;;;5064296;28;20386;-57
2022/08/05 10:02:48;;;;;;;1.88;0.70;;;24.50;86.80;;;;;;5063733;28;20052;-57
2022/08/05 10:05:19;;;;;;;2.00;0.70;;;24.50;84.60;;;;;;5063785;28;20058;-56
2022/08/05 10:07:53;;;;;;;1.20;0.60;;;24.50;85.80;;;;;;5063445;28;20098;-57
2022/08/05 10:10:23;;;;;;;1.80;0.60;;;24.70;86.10;;;;;;5064357;28;20140;-56
2022/08/05 10:12:52;;;;;;;2.10;0.70;;;24.70;84.60;;;;;;5060065;28;20048;-56
2022/08/05 10:15:25;;;;;;;1.35;0.80;;;24.70;86.80;;;;;;5062323;28;20102;-57
2022/08/05 10:18:20;;;;;;;2.15;0.70;;;24.90;84.30;;;;;;5064618;28;20048;-56
2022/08/05 10:20:48;;;;;;;1.77;0.55;;;24.80;83.00;;;;;;5064192;28;20052;-55
2022/08/05 10:23:22;;;;;;;0.80;0.50;;;25.00;79.80;;;;;;5047057;28;20049;-57
2022/08/05 10:25:48;;;;;;;2.15;0.70;;;25.20;81.00;;;;;;5066003;28;20048;-57
2022/08/05 10:28:15;;;;;;;1.65;0.80;;;25.20;84.40;;;;;;5046706;28;20040;-58
2022/08/05 10:30:41;;;;;;;1.67;0.65;;;25.20;84.40;;;;;;5063917;28;20048;-56
2022/08/05 10:33:07;;;;;;;2.05;0.75;;;25.10;81.50;;;;;;5063393;28;20110;-57
2022/08/05 10:35:34;;;;;;;1.63;0.60;;;25.10;82.60;;;;;;5045225;28;20069;-56
2022/08/05 10:38:01;;;;;;;1.20;0.57;;;25.10;83.40;;;;;;5045235;28;20057;-57
2022/08/05 10:40:42;;;;;;;2.95;0.70;;;25.00;81.40;;;;;;5062719;28;20063;-56
2022/08/05 10:43:40;;;;;;;2.05;0.70;;;24.70;82.40;;;;;;5063576;28;20044;-57
2022/08/05 10:46:12;;;;;;;1.13;0.63;;;24.60;82.60;;;;;;5055630;28;20113;-56
2022/08/05 10:48:47;;;;;;;2.50;0.75;;;24.60;83.50;;;;;;5063406;28;20519;-56
2022/08/05 10:51:14;;;;;;;2.53;0.60;;;24.70;82.00;;;;;;5064033;28;20419;-56
2022/08/05 10:53:58;;;;;;;1.65;0.70;;;24.60;84.00;;;;;;5063540;28;20181;-57
2022/08/05 10:56:29;;;;;;;3.20;0.63;;;24.70;83.60;;;;;;5061673;28;20098;-56
2022/08/05 10:58:55;;;;;;;2.08;0.75;;;24.50;84.70;;;;;;5065039;28;20358;-56
2022/08/05 11:01:36;;;;;;;2.10;0.65;;;24.10;85.60;;;;;;5062726;28;20048;-56
2022/08/05 11:04:07;;;;;;;3.15;0.75;;;24.30;87.90;;;;;;5063729;28;20399;-56
2022/08/05 11:06:34;;;;;;;4.18;0.93;;;24.30;86.80;;;;;;5063822;28;20047;-56
2022/08/05 11:09:20;;;;;;;1.23;0.52;;;24.30;86.60;;;;;;5063575;28;20056;-56
2022/08/05 11:11:48;;;;;;;2.65;0.82;;;24.50;88.60;;;;;;5062488;28;20040;-57
2022/08/05 11:14:32;;;;;;;1.80;0.80;;;24.20;87.60;;;;;;5056302;28;20123;-56
2022/08/05 11:17:26;;;;;;;3.92;0.85;;;24.20;89.50;;;;;;5063029;28;20055;-57
2022/08/05 11:19:54;;;;;;;1.42;0.70;;;24.10;88.00;;;;;;5063586;28;20052;-57
2022/08/05 11:22:48;;;;;;;2.33;0.90;;;24.00;87.90;;;;;;5062978;28;20479;-56
2022/08/05 11:25:30;;;;;;;2.88;0.70;;;23.70;87.90;;;;;;5063788;28;20052;-56
2022/08/05 11:28:16;;;;;;;2.40;0.90;;;23.70;89.40;;;;;;5062379;28;20423;-57
2022/08/05 11:30:57;;;;;;;2.75;0.90;;;23.80;88.60;;;;;;5062734;28;20579;-56
2022/08/05 11:33:36;;;;;;;4.65;0.70;;;23.80;86.70;;;;;;5058051;28;20086;-56
2022/08/05 11:36:10;;;;;;;3.83;0.80;;;23.80;86.60;;;;;;5061715;28;20127;-57
2022/08/05 11:38:41;;;;;;;1.98;0.60;;;23.90;86.70;;;;;;5066149;28;20498;-56
2022/08/05 11:41:27;;;;;;;1.45;0.60;;;23.80;87.80;;;;;;5047911;28;20473;-56
2022/08/05 11:43:56;;;;;;;3.38;0.90;;;23.90;89.40;;;;;;5044969;28;20496;-57
2022/08/05 11:46:28;;;;;;;3.47;1.00;;;23.80;87.70;;;;;;5066799;28;20052;-56
2022/08/05 11:48:54;;;;;;;2.42;0.77;;;23.60;88.80;;;;;;5066706;28;20040;-57
2022/08/05 11:51:21;;;;;;;3.67;0.75;;;23.50;89.70;;;;;;5066983;28;20106;-57
2022/08/05 11:53:48;;;;;;;1.48;0.63;;;23.10;89.20;;;;;;5067883;28;20091;-56
2022/08/05 11:56:14;;;;;;;3.55;1.23;;;23.10;90.30;;;;;;5067134;28;20076;-57
2022/08/05 11:58:43;;;;;;;1.98;0.70;;;23.20;90.50;;;;;;5072647;28;20686;-57
2022/08/05 12:01:20;;;;;;;3.83;1.27;;;23.20;90.60;;;;;;5066557;28;20131;-57
2022/08/05 12:03:52;;;;;;;2.28;0.70;;;23.20;90.80;;;;;;5067057;28;20044;-55
2022/08/05 12:06:28;;;;;;;3.80;1.10;;;23.20;91.10;;;;;;5066035;28;20056;-57
2022/08/05 12:08:58;;;;;;;3.92;0.73;;;23.30;91.10;;;;;;5066711;28;20533;-56
2022/08/05 12:11:29;;;;;;;2.72;0.93;;;23.30;90.70;;;;;;5065852;28;20541;-57
2022/08/05 12:14:03;;;;;;;2.47;0.82;;;23.20;91.00;;;;;;5048352;28;20083;-56
2022/08/05 12:16:35;;;;;;;2.92;1.10;;;23.30;90.30;;;;;;5066317;28;20059;-56
2022/08/05 12:19:01;;;;;;;2.40;0.80;;;23.10;90.60;;;;;;5066909;28;20501;-56
2022/08/05 12:21:30;;;;;;;2.25;1.00;;;23.00;90.80;;;;;;5066164;28;20040;-56
2022/08/05 12:24:06;;;;;;;2.20;0.90;;;23.10;90.90;;;;;;5066680;28;20048;-56
2022/08/05 12:26:40;;;;;;;2.83;1.02;;;23.00;90.40;;;;;;5065408;28;20280;-56
2022/08/05 12:29:09;;;;;;;1.02;0.70;;;23.10;90.40;;;;;;5066025;28;20057;-56
2022/08/05 12:31:36;;;;;;;1.20;0.60;;;23.20;90.30;;;;;;5065209;28;20155;-56
2022/08/05 12:34:04;;;;;;;3.15;1.10;;;23.20;90.60;;;;;;5066217;28;20059;-56
2022/08/05 12:36:31;;;;;;;1.80;0.50;;;23.40;90.20;;;;;;5065736;28;20494;-57
2022/08/05 12:38:57;;;;;;;2.28;0.90;;;23.70;90.60;;;;;;5066248;28;20055;-56
2022/08/05 12:41:41;;;;;;;2.20;0.82;;;23.80;90.60;;;;;;5065969;28;20059;-56
2022/08/05 12:44:12;;;;;;;1.88;0.85;;;23.70;87.60;;;;;;5063241;28;20431;-55
2022/08/05 12:46:51;;;;;;;2.08;0.70;;;23.60;87.30;;;;;;5067525;28;20052;-57
2022/08/05 12:49:17;;;;;;;2.47;0.70;;;23.70;89.00;;;;;;5068853;28;20052;-56
2022/08/05 12:51:50;;;;;;;3.55;0.95;;;23.60;89.60;;;;;;5067602;28;20040;-56
2022/08/05 12:54:22;;;;;;;;;;;23.50;90.30;;;;;;5066713;28;20053;-56
2022/08/05 12:56:50;;;;;;;3.00;0.63;;;23.40;90.20;;;;;;5064719;28;19932;-56
2022/08/05 12:59:27;;;;;;;2.33;0.70;;;23.40;90.00;;;;;;5066872;28;20044;-56
2022/08/05 13:01:58;;;;;;;5.55;0.70;;;23.10;88.70;;;;;;5065773;28;20395;-56
2022/08/05 13:04:40;;;;;;;2.55;0.68;;;23.10;90.20;;;;;;5064534;28;20502;-56
2022/08/05 13:07:12;;;;;;;1.48;0.75;;;23.20;88.60;;;;;;5065396;28;20657;-56